Nearby METAR Reports

 

ENCN - Kristiansand/Kje, Norway
Distance from station: С 17km
Актуализирано: 06/02/2023 00:50
Облачно
Облачно
 Вятър от ИСИ
Вятър: ИСИ 9 km/h
Температура: -1°C
Wind Chill: -4°C
Точка на оросяване: -1°C
Влажност: 100%
Барометър: 1039 hPa
Clouds: Облачно
Visibility: 10 km
Cloud details: Облачно 3353 m
2023/02/05 23:50 ENCN 052350Z AUTO 06005KT 9999 OVC110/// M01/M01 Q1039
EKSN - Sindal Airport, Denmark
Distance from station: ИЮИ 145km
Актуализирано: 30/12/2021 14:50
NOT Current
Mist, Преобладаваща облачност
Mist, Преобладаваща облачност
 Вятър от ЮЗ
Вятър: ЮЗ 26 km/h
Температура: 7°C
Wind Chill: 3°C
Точка на оросяване: 7°C
Влажност: 100%
Барометър: 999 hPa
Метео сводка: Mist
Clouds: Преобладаваща облачност
Visibility: 5 km
Cloud details: Частична облачност 183 m
Преобладаваща облачност 244 m
2021/12/30 13:50 EKSN 301350Z 23014KT 4500 BR SCT006 BKN008 07/07 Q0999
 
EKYT - Alborg, Denmark
Distance from station: ЮИ 153km
Актуализирано: 06/02/2023 01:01
Fog, Преобладаваща облачност
Fog, Преобладаваща облачност
 Вятър от ЮЗ
Вятър: ЮЗ 2 km/h
Температура: -1°C
Точка на оросяване: -1°C
Влажност: 100%
Барометър: 1039 hPa
Метео сводка: Fog
Clouds: Преобладаваща облачност
Visibility: 5 km
Cloud details: Преобладаваща облачност 5182 m
2023/02/06 00:01 EKYT 060001Z AUTO 23001KT 5000 FG BKN170/// M01/M01 Q1039
ENSN - Skien/Geiterygge, Norway
Distance from station: СИ 153km
Актуализирано: 09/11/2015 09:50
NOT Current
Тихо и ясно
Тихо и ясно
 Вятър от ЮЮЗ
Вятър: ЮЮЗ 19 km/h, Порив: 41 km/h
Температура: 7°C
Wind Chill: 4°C
Точка на оросяване: 3°C
Влажност: 76%
Барометър: 1000 hPa
Метео сводка: Тихо и ясно
Visibility: greater than 10 km
2015/11/09 08:50 ENSN 090850Z 20010G22KT 150V240 CAVOK 07/03 Q1000
 
ENZV - Stavanger/Sola(A, Norway
Distance from station: СЗ 166km
Актуализирано: 06/02/2023 00:50
Mist, Облачно
Mist, Облачно
 Вятър от ЮЮЗ
Вятър: ЮЮЗ 11 km/h
Температура: 4°C
Wind Chill: 1°C
Точка на оросяване: 3°C
Влажност: 93%
Барометър: 1039 hPa
Метео сводка: Mist
Clouds: Облачно
Visibility: 5 km
Cloud details: Частична облачност 244 m
Облачно 3658 m
2023/02/05 23:50 ENZV 052350Z AUTO 20006KT 5000 BR SCT008/// OVC120/// 04/03 Q1039
ENNO - Notodden, Norway
Distance from station: ССИ 182km
Актуализирано: 05/02/2023 16:20
NOT Current
Тихо и ясно
Тихо и ясно
 Вятър от calm
Вятър: Тихо
Температура: -3°C
Точка на оросяване: -4°C
Влажност: 93%
Барометър: 1036 hPa
Метео сводка: Тихо и ясно
Visibility: greater than 10 km
2023/02/05 15:20 ENNO 051520Z 00000KT CAVOK M03/M04 Q1036
 
ENTO - Torp (civ/Nor-Af, Norway
Distance from station: СИ 183km
Актуализирано: 06/02/2023 00:50
Облачно
Облачно
 Вятър от calm
Вятър: Тихо
Температура: -1°C
Точка на оросяване: -1°C
Влажност: 100%
Барометър: 1038 hPa
Clouds: Облачно
Visibility: 1 km
Cloud details: Облачно 4572 m
2023/02/05 23:50 ENTO 052350Z AUTO 00000KT 0500 R18/P2000N R36/P2000N OVC150/// M01/M01 Q1038
EKKA - Karup (dan-Afb), Denmark
Distance from station: ЮЮИ 209km
Актуализирано: 06/02/2023 01:06
Частична облачност
Частична облачност
 Вятър от ЗЮЗ
Вятър: ЗЮЗ 6 km/h
Температура: 1°C
Точка на оросяване: 1°C
Влажност: 100%
Барометър: 1039 hPa
Clouds: Частична облачност
Visibility: 7 km
Cloud details: Частична облачност 6096 m
2023/02/06 00:06 EKKA 060006Z AUTO 25003KT 7000 SCT200/// 01/01 Q1039
 
ENHD - Haugesund/Karmoy, Norway
Distance from station: СЗ 216km
Актуализирано: 06/02/2023 00:50
Преобладаваща облачност
Преобладаваща облачност
 Вятър от ЮЮИ
Вятър: ЮЮИ 11 km/h
Температура: 5°C
Wind Chill: 2°C
Точка на оросяване: 4°C
Влажност: 93%
Барометър: 1038 hPa
Clouds: Преобладаваща облачност
Visibility: 6 km
Cloud details: Преобладаваща облачност 3658 m
2023/02/05 23:50 ENHD 052350Z AUTO 16006KT 6000 BKN120/// 05/04 Q1038
ENRY - Rygge (nor-Afb), Norway
Distance from station: СИ 216km
Актуализирано: 06/02/2023 00:50
Преобладаваща облачност
Преобладаваща облачност
 Вятър от varies
Вятър: varies 2 km/h
Температура: -4°C
Точка на оросяване: -5°C
Влажност: 93%
Барометър: 1038 hPa
Clouds: Преобладаваща облачност
Visibility: 10 km
Cloud details: Частична облачност 3353 m
Преобладаваща облачност 4267 m
2023/02/05 23:50 ENRY 052350Z AUTO VRB01KT 9999NDV SCT110/// BKN140/// M04/M05 Q1038
 
ESGP - Goteborg/Save (a, Sweden
Distance from station: И 230km
Актуализирано: 06/02/2023 00:50
Freezing fog, Облачно
Freezing fog, Облачно
 Вятър от calm
Вятър: Тихо
Температура: -1°C
Точка на оросяване: -2°C
Влажност: 93%
Барометър: 1039 hPa
Метео сводка: Freezing Fog
Clouds: Облачно
Visibility: 0 km
Cloud details: Облачно 30 m
2023/02/05 23:50 ESGP 052350Z AUTO 00000KT 0150 R01/0550N R19/0550N FZFG OVC001/// M01/M02 Q1039
EKVJ - Stauning Airport, Denmark
Distance from station: Ю 233km
Актуализирано: 03/02/2023 13:50
NOT Current
Преобладаваща облачност
Преобладаваща облачност
 Вятър от ЗСЗ
Вятър: ЗСЗ 33 km/h
Температура: 7°C
Wind Chill: 3°C
Точка на оросяване: 5°C
Влажност: 87%
Барометър: 1010 hPa
Clouds: Преобладаваща облачност
Visibility: 7 km
Cloud details: Частична облачност 610 m
Преобладаваща облачност 914 m
2023/02/03 12:50 EKVJ 031250Z 29018KT 7000 SCT020 BKN030 07/05 Q1010
 
ENSO - Stord/Soerstokke, Norway
Distance from station: СЗ 246km
Актуализирано: 05/02/2023 19:50
NOT Current
Преобладаваща облачност
Преобладаваща облачност
 Вятър от ЮЗ
Вятър: ЮЗ 11 km/h
Температура: 6°C
Wind Chill: 4°C
Точка на оросяване: 6°C
Влажност: 100%
Барометър: 1039 hPa
Clouds: Преобладаваща облачност
Visibility: 10 km
Cloud details: Few Clouds 366 m
Частична облачност 549 m
Преобладаваща облачност 2134 m
2023/02/05 18:50 ENSO 051850Z 23006KT 9999 FEW012 SCT018 BKN070 06/06 Q1039
EKAH - Tirstrup (civ/Mi, Denmark
Distance from station: ЮИ 252km
Актуализирано: 06/02/2023 00:50
Few Clouds
Few Clouds
 Вятър от calm
Вятър: Тихо
Температура: -1°C
Точка на оросяване: -2°C
Влажност: 93%
Барометър: 1039 hPa
Clouds: Few Clouds
Visibility: 10 km
Cloud details: Few Clouds 5182 m
Few Clouds 7010 m
2023/02/05 23:50 EKAH 052350Z AUTO 00000KT 9999 FEW170/// FEW230/// M01/M02 Q1039
 
ESGT - Trollhattan (pvt, Sweden
Distance from station: И 255km
Актуализирано: 06/02/2023 00:50
Freezing fog, Облачно
Freezing fog, Облачно
 Вятър от З
Вятър: З 4 km/h
Температура: -3°C
Точка на оросяване: -3°C
Влажност: 100%
Барометър: 1039 hPa
Метео сводка: Freezing Fog
Clouds: Облачно
Visibility: 0 km
Cloud details: Облачно 61 m
2023/02/05 23:50 ESGT 052350Z AUTO 28002KT 0100 R15///// R33///// FZFG OVC002/// M03/M03 Q1039
ESGG - Goteborg/Landvet, Sweden
Distance from station: И 257km
Актуализирано: 06/02/2023 00:50
Freezing fog, Облачно
Freezing fog, Облачно
 Вятър от varies
Вятър: varies 6 km/h
Температура: -3°C
Точка на оросяване: -3°C
Влажност: 100%
Барометър: 1038 hPa
Метео сводка: Freezing Fog
Clouds: Облачно
Visibility: 0 km
Cloud details: Облачно 30 m
2023/02/05 23:50 ESGG 052350Z VRB03KT 0100 R03/0450N R21/0350N FZFG VV001 M03/M03 Q1038
 
EKBI - Billund Airport, Denmark
Distance from station: ЮЮИ 269km
Актуализирано: 06/02/2023 00:50
Few Clouds
Few Clouds
 Вятър от ЮЮИ
Вятър: ЮЮИ 2 km/h
Температура: -2°C
Точка на оросяване: -2°C
Влажност: 100%
Барометър: 1040 hPa
Clouds: Few Clouds
Visibility: 10 km
Cloud details: Few Clouds 4877 m
2023/02/05 23:50 EKBI 052350Z AUTO 15001KT 9999 FEW160/// M02/M02 Q1040
EKHN - Horns Rev B Heli, Denmark
Distance from station: Ю 274km
Актуализирано: 09/08/2016 14:20
NOT Current
Few Clouds
Few Clouds
 Вятър от ЗСЗ
Вятър: ЗСЗ 50 km/h, Порив: 72 km/h
Температура: 14°C
Точка на оросяване: 10°C
Влажност: 77%
Барометър: 1018 hPa
Clouds: Few Clouds
Visibility: 10 km
Cloud details: Few Clouds 1158 m
Few Clouds 2438 m
2016/08/09 12:20 EKHN 091220Z AUTO 29027G39KT 270V340 9999NDV FEW038/// FEW080/// 14/10 Q1018
 
ESIB - Satenas (swe-Afb, Sweden
Distance from station: И 277km
Актуализирано: 06/02/2023 00:50
Freezing fog, Облачно
Freezing fog, Облачно
 Вятър от ЮЗ
Вятър: ЮЗ 7 km/h
Температура: -4°C
Wind Chill: -7°C
Точка на оросяване: -4°C
Влажност: 100%
Барометър: 1038 hPa
Метео сводка: Freezing Fog
Clouds: Облачно
Visibility: 0 km
Cloud details: Облачно 61 m
2023/02/05 23:50 ESIB 052350Z AUTO 22004KT 0200 R01/0700D R19/0700N FZFG VV002 M04/M04 Q1038
EKHR - Horns Rev B Heli, Denmark
Distance from station: Ю 282km
Актуализирано: 04/10/2016 06:20
NOT Current
Тихо и ясно
Тихо и ясно
 Вятър от И
Вятър: И 4 km/h
Температура: 11°C
Точка на оросяване: -49°C
Влажност: 0%
Барометър: 1038 hPa
Clouds: Тихо и ясно
Visibility: 10 km
2016/10/04 04:20 EKHR 040420Z AUTO 08002KT 9999NDV NCD 11/M49 Q1038